createdAt,value
2023-10-16T00:00:04.893Z,49.89
2023-10-16T00:01:06.405Z,49.69
2023-10-16T00:02:07.929Z,49.85
2023-10-16T00:03:09.458Z,49.61
2023-10-16T00:04:11.005Z,49.67
2023-10-16T00:05:13.170Z,49.55
2023-10-16T00:06:14.677Z,49.29
2023-10-16T00:07:16.182Z,49.33
2023-10-16T00:08:17.749Z,49.18
2023-10-16T00:09:19.342Z,49.45
2023-10-16T00:10:20.855Z,49.36
2023-10-16T00:11:22.280Z,49.36
2023-10-16T00:12:24.002Z,49.14
2023-10-16T00:13:25.561Z,49.11
2023-10-16T00:14:27.288Z,49.22
2023-10-16T00:15:29.051Z,49.31
2023-10-16T00:16:30.724Z,49.07
2023-10-16T00:17:32.666Z,49.10
2023-10-16T00:18:34.244Z,49.19
2023-10-16T00:19:35.767Z,49.29
2023-10-16T00:20:37.334Z,49.12
2023-10-16T00:21:38.818Z,49.10
2023-10-16T00:22:40.311Z,49.29
2023-10-16T00:23:41.813Z,49.41
2023-10-16T00:24:43.326Z,49.38
2023-10-16T00:25:44.939Z,49.37
2023-10-16T00:26:46.443Z,49.31
2023-10-16T00:27:48.004Z,49.36
2023-10-16T00:28:49.499Z,49.13
2023-10-16T00:29:50.935Z,49.19
2023-10-16T00:30:52.622Z,49.14
2023-10-16T00:31:54.518Z,49.17
2023-10-16T00:32:56.029Z,49.17
2023-10-16T00:33:57.605Z,49.13
2023-10-16T00:34:59.072Z,49.26
2023-10-16T00:36:00.570Z,49.11
2023-10-16T00:37:02.032Z,49.35
2023-10-16T00:38:03.452Z,49.17
2023-10-16T00:39:04.904Z,49.13
2023-10-16T00:40:06.361Z,49.28
2023-10-16T00:41:07.916Z,49.14
2023-10-16T00:42:09.395Z,48.96
2023-10-16T00:43:10.920Z,49.11
2023-10-16T00:44:12.375Z,49.05
2023-10-16T00:45:13.844Z,48.87
2023-10-16T00:46:15.514Z,49.13
2023-10-16T00:47:17.081Z,48.63
2023-10-16T00:48:18.605Z,48.91
2023-10-16T00:49:20.339Z,48.70
2023-10-16T00:50:21.875Z,48.79
2023-10-16T00:51:34.319Z,48.59
2023-10-16T00:52:41.323Z,48.54
2023-10-16T00:53:42.795Z,48.40
2023-10-16T00:54:44.291Z,48.57
2023-10-16T00:55:45.772Z,48.33
2023-10-16T00:56:47.297Z,48.41
2023-10-16T00:57:48.805Z,48.45
2023-10-16T00:58:50.433Z,48.22
2023-10-16T00:59:51.892Z,48.18
2023-10-16T01:00:53.379Z,48.43
2023-10-16T01:01:54.881Z,48.32
2023-10-16T01:02:56.401Z,48.39
2023-10-16T01:03:57.992Z,48.42
2023-10-16T01:04:59.543Z,48.51
2023-10-16T01:06:01.024Z,48.67
2023-10-16T01:07:02.506Z,48.72
2023-10-16T01:08:03.983Z,48.64
2023-10-16T01:09:05.422Z,49.03
2023-10-16T01:10:06.902Z,48.90
2023-10-16T01:11:08.367Z,49.01
2023-10-16T01:12:10.240Z,49.44
2023-10-16T01:13:11.739Z,49.16
2023-10-16T01:14:13.209Z,49.37
2023-10-16T01:15:14.761Z,49.50
2023-10-16T01:16:16.281Z,49.67
2023-10-16T01:17:17.783Z,49.77
2023-10-16T01:18:19.297Z,49.63
2023-10-16T01:19:21.397Z,49.98
2023-10-16T01:20:23.290Z,50.03
2023-10-16T01:21:24.799Z,50.11
2023-10-16T01:22:26.292Z,50.17
2023-10-16T01:23:27.777Z,50.06
2023-10-16T01:24:29.558Z,49.89
2023-10-16T01:25:31.181Z,50.18
2023-10-16T01:26:32.641Z,50.22
2023-10-16T01:27:34.172Z,50.07
2023-10-16T01:28:35.745Z,50.05
2023-10-16T01:29:37.222Z,50.20
2023-10-16T01:30:38.821Z,50.02
2023-10-16T01:31:40.347Z,49.93
2023-10-16T01:32:41.878Z,49.84
2023-10-16T01:33:43.453Z,49.63
2023-10-16T01:34:44.969Z,49.70
2023-10-16T01:35:46.451Z,50.03
2023-10-16T01:36:48.057Z,49.77
2023-10-16T01:37:49.660Z,49.55
2023-10-16T01:38:51.144Z,49.69
2023-10-16T01:39:52.666Z,49.63
2023-10-16T01:40:54.176Z,49.54
2023-10-16T01:41:55.738Z,49.44
2023-10-16T01:42:57.288Z,49.34
2023-10-16T01:43:58.783Z,49.31
2023-10-16T01:45:00.306Z,49.22
2023-10-16T01:46:04.093Z,49.22
2023-10-16T01:47:05.703Z,49.19
2023-10-16T01:48:07.265Z,49.42
2023-10-16T01:49:08.766Z,49.24
2023-10-16T01:50:10.222Z,49.63
2023-10-16T01:51:11.706Z,49.50
2023-10-16T01:52:13.366Z,49.51
2023-10-16T01:53:15.025Z,49.54
2023-10-16T01:54:16.548Z,49.51
2023-10-16T01:55:18.087Z,49.55
2023-10-16T01:56:19.620Z,49.89
2023-10-16T01:57:21.164Z,49.53
2023-10-16T01:58:22.697Z,49.66
2023-10-16T01:59:24.201Z,49.75
2023-10-16T02:00:25.862Z,49.47
2023-10-16T02:01:27.757Z,49.83
2023-10-16T02:02:29.393Z,49.78
2023-10-16T02:03:30.938Z,50.01
2023-10-16T02:04:32.482Z,49.92
2023-10-16T02:05:33.915Z,50.14
2023-10-16T02:06:35.458Z,49.92
2023-10-16T02:07:36.966Z,49.98
2023-10-16T02:08:38.456Z,50.03
2023-10-16T02:09:40.030Z,50.10
2023-10-16T02:10:41.678Z,50.16
2023-10-16T02:11:43.136Z,50.03
2023-10-16T02:12:44.657Z,50.15
2023-10-16T02:13:46.161Z,50.27
2023-10-16T02:14:47.694Z,50.16
2023-10-16T02:15:49.282Z,50.38
2023-10-16T02:16:50.795Z,50.41
2023-10-16T02:17:52.318Z,50.35
2023-10-16T02:18:53.850Z,50.36
2023-10-16T02:19:55.330Z,50.51
2023-10-16T02:20:56.864Z,50.37
2023-10-16T02:21:58.406Z,50.49
2023-10-16T02:22:59.869Z,50.48
2023-10-16T02:24:01.397Z,50.43
2023-10-16T02:25:02.901Z,50.41
2023-10-16T02:26:04.504Z,50.21
2023-10-16T02:27:05.958Z,50.17
2023-10-16T02:28:07.440Z,50.22
2023-10-16T02:29:08.938Z,49.90
2023-10-16T02:30:10.409Z,49.99
2023-10-16T02:31:11.899Z,50.05
2023-10-16T02:32:13.394Z,50.00
2023-10-16T02:33:14.861Z,49.80
2023-10-16T02:34:16.361Z,49.72
2023-10-16T02:35:17.860Z,49.83
2023-10-16T02:36:19.454Z,49.63
2023-10-16T02:37:21.011Z,49.56
2023-10-16T02:38:22.470Z,49.77
2023-10-16T02:39:24.025Z,49.63
2023-10-16T02:40:25.530Z,49.58
2023-10-16T02:41:27.010Z,49.52
2023-10-16T02:42:28.554Z,49.52
2023-10-16T02:43:30.093Z,49.68
2023-10-16T02:44:31.599Z,49.47
2023-10-16T02:45:33.096Z,49.20
2023-10-16T02:46:34.554Z,49.35
2023-10-16T02:47:36.027Z,49.32
2023-10-16T02:48:37.540Z,49.23
2023-10-16T02:49:39.542Z,49.20
2023-10-16T02:50:41.000Z,49.36
2023-10-16T02:51:42.513Z,49.14
2023-10-16T02:52:43.979Z,49.30
2023-10-16T02:53:45.459Z,49.24
2023-10-16T02:54:47.024Z,49.01
2023-10-16T02:55:48.533Z,49.06
2023-10-16T02:56:49.997Z,49.21
2023-10-16T02:57:51.463Z,49.02
2023-10-16T02:58:53.094Z,48.84
2023-10-16T02:59:54.594Z,48.92
2023-10-16T03:00:56.136Z,49.13
2023-10-16T03:01:57.822Z,49.33
2023-10-16T03:02:59.392Z,49.34
2023-10-16T03:04:00.949Z,49.10
2023-10-16T03:05:02.434Z,49.19
2023-10-16T03:06:03.889Z,49.09
2023-10-16T03:07:05.437Z,49.10
2023-10-16T03:08:06.916Z,49.26
2023-10-16T03:09:08.370Z,49.17
2023-10-16T03:10:09.953Z,49.31
2023-10-16T03:11:11.573Z,49.16
2023-10-16T03:12:13.020Z,49.08
2023-10-16T03:13:14.470Z,49.14
2023-10-16T03:14:15.940Z,48.93
2023-10-16T03:15:17.455Z,48.81
2023-10-16T03:16:18.964Z,49.10
2023-10-16T03:17:20.420Z,49.09
2023-10-16T03:18:21.918Z,49.03
2023-10-16T03:19:23.417Z,49.00
2023-10-16T03:20:24.957Z,49.08
2023-10-16T03:21:26.464Z,49.22
2023-10-16T03:22:27.935Z,49.05
2023-10-16T03:23:29.377Z,48.74
2023-10-16T03:24:30.895Z,49.15
2023-10-16T03:25:32.741Z,49.01
2023-10-16T03:26:34.230Z,49.04
2023-10-16T03:27:35.742Z,49.18
2023-10-16T03:28:37.342Z,49.13
2023-10-16T03:29:38.830Z,49.15
2023-10-16T03:30:40.386Z,49.23
2023-10-16T03:31:41.973Z,49.16
2023-10-16T03:32:43.549Z,49.29
2023-10-16T03:33:45.294Z,49.38
2023-10-16T03:34:46.984Z,49.22
2023-10-16T03:35:48.467Z,49.43
2023-10-16T03:36:49.957Z,49.27
2023-10-16T03:37:51.559Z,49.15
2023-10-16T03:38:53.014Z,49.37
2023-10-16T03:39:54.522Z,49.30
2023-10-16T03:40:56.023Z,49.13
2023-10-16T03:41:57.490Z,49.36
2023-10-16T03:42:59.019Z,49.11
2023-10-16T03:44:00.523Z,49.12
2023-10-16T03:45:02.004Z,49.06
2023-10-16T03:46:03.561Z,48.92
2023-10-16T03:47:05.030Z,49.18
2023-10-16T03:48:06.531Z,49.08
2023-10-16T03:49:08.014Z,49.06
2023-10-16T03:50:09.515Z,49.09
2023-10-16T03:51:11.133Z,49.08
2023-10-16T03:52:12.637Z,48.99
2023-10-16T03:53:14.105Z,48.97
2023-10-16T03:54:15.674Z,49.03
2023-10-16T03:55:17.233Z,48.98
2023-10-16T03:56:18.786Z,49.28
2023-10-16T03:57:20.227Z,49.21
2023-10-16T03:58:21.678Z,49.37
2023-10-16T03:59:23.136Z,49.32
2023-10-16T04:00:24.628Z,49.39
2023-10-16T04:01:26.134Z,49.42
2023-10-16T04:02:27.613Z,49.34
2023-10-16T04:03:29.190Z,49.74
2023-10-16T04:04:30.975Z,49.49
2023-10-16T04:05:32.720Z,49.30
2023-10-16T04:06:34.244Z,49.25
2023-10-16T04:07:35.715Z,49.22
2023-10-16T04:08:37.172Z,49.22
2023-10-16T04:09:38.746Z,49.39
2023-10-16T04:10:40.296Z,49.44
2023-10-16T04:11:41.817Z,49.28
2023-10-16T04:12:43.326Z,49.41
2023-10-16T04:13:44.833Z,49.18
2023-10-16T04:14:46.344Z,49.36
2023-10-16T04:15:47.938Z,49.17
2023-10-16T04:16:49.476Z,49.16
2023-10-16T04:17:50.972Z,49.23
2023-10-16T04:18:52.577Z,49.19
2023-10-16T04:19:54.183Z,49.19
2023-10-16T04:20:58.254Z,49.13
2023-10-16T04:21:59.899Z,48.98
2023-10-16T04:23:01.404Z,48.99
2023-10-16T04:24:02.930Z,48.97
2023-10-16T04:25:04.560Z,49.11
2023-10-16T04:26:06.082Z,48.72
2023-10-16T04:27:07.553Z,49.08
2023-10-16T04:28:09.030Z,48.96
2023-10-16T04:29:10.524Z,49.02
2023-10-16T04:30:13.364Z,48.91
2023-10-16T04:31:15.083Z,48.80
2023-10-16T04:32:16.622Z,48.95
2023-10-16T04:33:18.085Z,48.88
2023-10-16T04:34:19.679Z,48.83
2023-10-16T04:35:21.119Z,48.86
2023-10-16T04:36:22.580Z,48.73
2023-10-16T04:37:24.075Z,48.97
2023-10-16T04:38:25.564Z,48.74
2023-10-16T04:39:27.154Z,48.93
2023-10-16T04:40:28.691Z,49.02
2023-10-16T04:41:31.079Z,48.67
2023-10-16T04:42:32.595Z,48.84
2023-10-16T04:43:34.070Z,48.92
2023-10-16T04:44:35.530Z,48.89
2023-10-16T04:45:37.122Z,48.92
2023-10-16T04:46:38.666Z,49.06
2023-10-16T04:47:40.223Z,49.08
2023-10-16T04:48:41.743Z,49.04
2023-10-16T04:49:43.225Z,49.10
2023-10-16T04:51:16.651Z,49.28
2023-10-16T04:52:06.228Z,49.14
2023-10-16T04:53:07.717Z,49.43
2023-10-16T04:54:09.193Z,49.26
2023-10-16T04:55:10.638Z,49.43
2023-10-16T04:56:12.245Z,49.49
2023-10-16T04:57:13.709Z,49.53
2023-10-16T04:58:15.168Z,49.61
2023-10-16T04:59:16.611Z,49.36
2023-10-16T05:00:18.066Z,49.57
2023-10-16T05:01:19.563Z,49.61
2023-10-16T05:02:21.055Z,49.48
2023-10-16T05:03:22.535Z,49.51
2023-10-16T05:04:24.226Z,49.56
2023-10-16T05:05:25.769Z,49.50
2023-10-16T05:06:27.851Z,49.62
2023-10-16T05:07:29.395Z,49.56
2023-10-16T05:08:30.896Z,49.69
2023-10-16T05:09:32.443Z,49.84
2023-10-16T05:10:36.782Z,49.68
2023-10-16T05:11:38.274Z,49.73
2023-10-16T05:12:39.785Z,49.66
2023-10-16T05:13:41.318Z,49.97
2023-10-16T05:14:42.807Z,50.00
2023-10-16T05:15:44.334Z,50.19
2023-10-16T05:16:45.888Z,50.03
2023-10-16T05:17:47.423Z,50.05
2023-10-16T05:18:50.043Z,50.05
2023-10-16T05:19:52.678Z,50.27
2023-10-16T05:20:54.132Z,50.10
2023-10-16T05:21:55.838Z,50.21
2023-10-16T05:22:57.356Z,50.26
2023-10-16T05:23:58.803Z,50.41
2023-10-16T05:25:00.387Z,50.30
2023-10-16T05:26:01.892Z,50.30
2023-10-16T05:27:03.387Z,50.27
2023-10-16T05:28:04.916Z,50.25
2023-10-16T05:29:06.401Z,50.35
2023-10-16T05:30:07.906Z,50.50
2023-10-16T05:31:09.376Z,50.49
2023-10-16T05:32:10.908Z,50.32
2023-10-16T05:33:12.379Z,50.32
2023-10-16T05:34:13.832Z,50.38
2023-10-16T05:35:15.299Z,50.34
2023-10-16T05:36:16.771Z,50.18
2023-10-16T05:37:18.289Z,50.32
2023-10-16T05:38:19.759Z,50.31
2023-10-16T05:39:21.351Z,50.08
2023-10-16T05:40:22.827Z,50.17
2023-10-16T05:41:24.271Z,50.03
2023-10-16T05:42:25.814Z,50.04
2023-10-16T05:43:27.289Z,49.91
2023-10-16T05:44:28.852Z,49.91
2023-10-16T05:45:30.490Z,49.89
2023-10-16T05:46:32.019Z,49.87
2023-10-16T05:47:33.547Z,49.84
2023-10-16T05:48:35.083Z,49.99
2023-10-16T05:49:36.550Z,49.89
2023-10-16T05:50:38.046Z,49.68
2023-10-16T05:51:39.548Z,49.76
2023-10-16T05:52:41.057Z,49.87
2023-10-16T05:53:42.538Z,49.86
2023-10-16T05:54:44.044Z,49.92
2023-10-16T05:55:45.582Z,49.79
2023-10-16T05:56:47.114Z,49.92
2023-10-16T05:57:48.818Z,49.85
2023-10-16T05:58:50.406Z,50.02
2023-10-16T05:59:51.915Z,49.90
2023-10-16T06:00:53.441Z,49.87
2023-10-16T06:01:55.012Z,49.80
2023-10-16T06:02:56.573Z,49.78
2023-10-16T06:03:58.137Z,49.87
2023-10-16T06:05:01.267Z,49.91
2023-10-16T06:06:02.910Z,49.67
2023-10-16T06:07:04.540Z,49.92
2023-10-16T06:08:06.053Z,49.66
2023-10-16T06:09:07.515Z,49.75
2023-10-16T06:10:08.978Z,49.99
2023-10-16T06:11:10.413Z,49.92
2023-10-16T06:12:11.903Z,49.97
2023-10-16T06:13:13.414Z,49.95
2023-10-16T06:14:14.878Z,49.92
2023-10-16T06:15:16.352Z,49.99
2023-10-16T06:16:17.960Z,50.07
2023-10-16T06:17:19.500Z,50.04
2023-10-16T06:18:20.970Z,49.94
2023-10-16T06:19:22.457Z,49.93
2023-10-16T06:20:23.937Z,50.08
2023-10-16T06:21:25.486Z,49.95
2023-10-16T06:22:27.038Z,49.92
2023-10-16T06:23:29.090Z,49.99
2023-10-16T06:24:30.772Z,49.90
2023-10-16T06:25:32.540Z,49.99
2023-10-16T06:26:34.030Z,50.08
2023-10-16T06:27:35.560Z,50.01
2023-10-16T06:28:37.051Z,49.92
2023-10-16T06:29:38.521Z,49.94
2023-10-16T06:30:40.033Z,49.98
2023-10-16T06:31:41.606Z,49.94
2023-10-16T06:32:43.168Z,49.93
2023-10-16T06:33:44.697Z,50.03
2023-10-16T06:34:46.176Z,49.93
2023-10-16T06:35:47.660Z,50.02
2023-10-16T06:36:49.171Z,49.98
2023-10-16T06:37:50.658Z,50.11
2023-10-16T06:38:52.138Z,50.02
2023-10-16T06:39:53.643Z,49.99
2023-10-16T06:40:55.141Z,50.10
2023-10-16T06:41:56.635Z,50.11
2023-10-16T06:42:58.151Z,50.05
2023-10-16T06:43:59.624Z,50.21
2023-10-16T06:45:01.111Z,50.03
2023-10-16T06:46:02.685Z,50.22
2023-10-16T06:47:04.262Z,50.13
2023-10-16T06:48:05.802Z,50.14
2023-10-16T06:49:07.315Z,50.20
2023-10-16T06:50:08.774Z,50.28
2023-10-16T06:51:10.254Z,50.14
2023-10-16T06:52:11.723Z,50.05
2023-10-16T06:53:13.198Z,50.19
2023-10-16T06:54:14.996Z,50.21
2023-10-16T06:55:16.475Z,50.27
2023-10-16T06:56:17.914Z,50.42
2023-10-16T06:57:19.379Z,50.56
2023-10-16T06:58:20.860Z,50.48
2023-10-16T06:59:22.402Z,50.41
2023-10-16T07:00:23.924Z,50.63
2023-10-16T07:01:25.656Z,50.82
2023-10-16T07:02:27.248Z,50.73
2023-10-16T07:03:28.797Z,50.75
2023-10-16T07:04:30.641Z,51.00
2023-10-16T07:05:32.409Z,50.94
2023-10-16T07:06:34.288Z,51.07
2023-10-16T07:07:35.959Z,50.92
2023-10-16T07:08:37.443Z,51.31
2023-10-16T07:09:38.950Z,51.07
2023-10-16T07:10:40.529Z,51.19
2023-10-16T07:11:42.010Z,51.23
2023-10-16T07:12:43.532Z,51.32
2023-10-16T07:13:45.038Z,51.53
2023-10-16T07:14:46.530Z,51.46
2023-10-16T07:15:48.087Z,51.50
2023-10-16T07:16:50.200Z,51.54
2023-10-16T07:17:51.800Z,51.81
2023-10-16T07:18:53.359Z,52.07
2023-10-16T07:19:54.930Z,51.59
2023-10-16T07:20:56.423Z,51.58
2023-10-16T07:21:57.919Z,51.68
2023-10-16T07:22:59.412Z,51.80
2023-10-16T07:24:00.847Z,52.08
2023-10-16T07:25:02.371Z,52.11
2023-10-16T07:26:03.838Z,51.94
2023-10-16T07:27:05.306Z,52.01
2023-10-16T07:28:06.753Z,51.90
2023-10-16T07:29:08.427Z,52.14
2023-10-16T07:30:09.925Z,52.18
2023-10-16T07:31:11.896Z,52.13
2023-10-16T07:32:13.902Z,52.28
2023-10-16T07:33:15.368Z,52.05
2023-10-16T07:34:17.026Z,52.34
2023-10-16T07:35:18.776Z,52.29
2023-10-16T07:36:20.265Z,52.27
2023-10-16T07:37:21.724Z,52.62
2023-10-16T07:38:23.209Z,52.58
2023-10-16T07:39:24.733Z,52.33
2023-10-16T07:40:26.253Z,52.56
2023-10-16T07:41:27.714Z,52.45
2023-10-16T07:42:29.193Z,52.55
2023-10-16T07:43:30.716Z,52.38
2023-10-16T07:44:32.282Z,52.49
2023-10-16T07:45:36.315Z,52.50
2023-10-16T07:46:38.266Z,52.54
2023-10-16T07:47:39.779Z,52.61
2023-10-16T07:48:41.309Z,52.77
2023-10-16T07:49:42.784Z,52.47
2023-10-16T07:50:44.298Z,52.62
2023-10-16T07:51:45.847Z,52.53
2023-10-16T07:52:47.375Z,52.51
2023-10-16T07:53:48.872Z,52.34
2023-10-16T07:54:50.407Z,52.55
2023-10-16T07:55:52.014Z,52.55
2023-10-16T07:56:53.633Z,52.23
2023-10-16T07:57:55.399Z,52.42
2023-10-16T07:58:56.898Z,52.35
2023-10-16T07:59:58.386Z,52.19
2023-10-16T08:01:00.083Z,52.37
2023-10-16T08:02:01.747Z,51.95
2023-10-16T08:03:03.399Z,51.99
2023-10-16T08:04:04.982Z,51.97
2023-10-16T08:05:06.485Z,52.04
2023-10-16T08:06:07.961Z,52.11
2023-10-16T08:07:09.535Z,51.97
2023-10-16T08:08:11.014Z,51.76
2023-10-16T08:09:13.705Z,52.07
2023-10-16T08:10:15.391Z,51.68
2023-10-16T08:11:16.874Z,51.51
2023-10-16T08:12:18.329Z,51.35
2023-10-16T08:13:19.831Z,51.40
2023-10-16T08:14:21.320Z,51.54
2023-10-16T08:15:22.784Z,51.37
2023-10-16T08:16:27.301Z,51.09
2023-10-16T08:17:29.574Z,51.26
2023-10-16T08:18:31.250Z,51.15
2023-10-16T08:19:32.767Z,51.19
2023-10-16T08:20:34.356Z,51.06
2023-10-16T08:21:35.910Z,51.05
2023-10-16T08:22:37.474Z,51.13
2023-10-16T08:23:38.926Z,50.92
2023-10-16T08:24:40.429Z,50.97
2023-10-16T08:25:41.913Z,51.08
2023-10-16T08:26:43.382Z,50.94
2023-10-16T08:27:44.909Z,51.07
2023-10-16T08:28:46.743Z,50.95
2023-10-16T08:29:48.474Z,51.02
2023-10-16T08:30:50.068Z,51.13
2023-10-16T08:31:51.741Z,50.84
2023-10-16T08:32:53.310Z,51.29
2023-10-16T08:33:54.822Z,50.95
2023-10-16T08:34:58.179Z,51.21
2023-10-16T08:36:01.302Z,51.07
2023-10-16T08:37:02.858Z,51.09
2023-10-16T08:38:04.451Z,51.15
2023-10-16T08:39:05.912Z,51.21
2023-10-16T08:40:08.638Z,51.39
2023-10-16T08:41:10.213Z,51.31
2023-10-16T08:42:11.689Z,51.24
2023-10-16T08:43:13.318Z,51.34
2023-10-16T08:44:14.806Z,51.42
2023-10-16T08:45:16.289Z,51.21
2023-10-16T08:46:17.757Z,51.35
2023-10-16T08:47:19.346Z,51.27
2023-10-16T08:48:20.821Z,51.56
2023-10-16T08:49:22.270Z,51.18
2023-10-16T08:50:23.753Z,51.08
2023-10-16T08:51:25.232Z,51.37
2023-10-16T08:52:26.710Z,51.26
2023-10-16T08:53:28.199Z,51.40
2023-10-16T08:54:29.674Z,51.31
2023-10-16T08:55:31.153Z,51.22
2023-10-16T08:56:32.616Z,51.26
2023-10-16T08:57:34.136Z,51.43
2023-10-16T08:58:35.740Z,51.66
2023-10-16T08:59:37.216Z,51.50
2023-10-16T09:00:38.725Z,51.35
2023-10-16T09:01:40.351Z,51.65
2023-10-16T09:02:41.908Z,51.59
2023-10-16T09:03:43.778Z,51.39
2023-10-16T09:04:45.559Z,51.46
2023-10-16T09:05:47.105Z,51.44
2023-10-16T09:06:48.608Z,51.44
2023-10-16T09:07:50.134Z,51.71
2023-10-16T09:08:51.629Z,51.75
2023-10-16T09:09:53.192Z,51.69
2023-10-16T09:10:54.728Z,51.80
2023-10-16T09:11:56.213Z,51.82
2023-10-16T09:12:57.757Z,51.88
2023-10-16T09:13:59.239Z,51.74
2023-10-16T09:15:02.991Z,51.70
2023-10-16T09:16:04.715Z,51.76
2023-10-16T09:17:06.311Z,51.57
2023-10-16T09:18:07.848Z,51.44
2023-10-16T09:19:09.365Z,51.60
2023-10-16T09:20:10.840Z,51.38
2023-10-16T09:21:12.339Z,51.55
2023-10-16T09:22:13.837Z,51.31
2023-10-16T09:23:15.366Z,51.21
2023-10-16T09:24:16.892Z,51.06
2023-10-16T09:26:22.779Z,51.49
2023-10-16T09:27:24.356Z,51.60
2023-10-16T09:28:25.833Z,51.45
2023-10-16T09:29:27.436Z,51.41
2023-10-16T09:30:29.184Z,51.51
2023-10-16T09:31:30.810Z,51.40
2023-10-16T09:32:32.441Z,51.55
2023-10-16T09:33:34.001Z,51.73
2023-10-16T09:34:36.846Z,51.57
2023-10-16T09:35:38.306Z,51.46
2023-10-16T09:36:39.806Z,51.40
2023-10-16T09:37:41.401Z,51.37
2023-10-16T09:38:42.870Z,51.36
2023-10-16T09:39:44.384Z,51.40
2023-10-16T09:40:45.904Z,51.37
2023-10-16T09:41:47.554Z,51.56
2023-10-16T09:42:49.098Z,51.76
2023-10-16T09:43:50.584Z,51.67
2023-10-16T09:44:52.026Z,51.69
2023-10-16T09:45:53.512Z,51.39
2023-10-16T09:46:55.265Z,51.43
2023-10-16T09:47:56.867Z,51.36
2023-10-16T09:48:58.385Z,51.23
2023-10-16T09:49:59.989Z,51.45
2023-10-16T09:51:01.591Z,51.42
2023-10-16T09:52:06.795Z,51.65
2023-10-16T09:53:09.602Z,51.66
2023-10-16T09:54:11.173Z,51.48
2023-10-16T09:55:12.764Z,51.31
2023-10-16T09:56:14.210Z,51.18
2023-10-16T09:57:15.695Z,51.30
2023-10-16T09:58:17.178Z,51.28
2023-10-16T09:59:18.653Z,51.09
2023-10-16T10:00:20.167Z,51.00
2023-10-16T10:01:21.777Z,50.84
2023-10-16T10:02:23.305Z,50.84
2023-10-16T10:03:24.817Z,50.90
2023-10-16T10:04:26.861Z,50.88
2023-10-16T10:05:28.621Z,50.93
2023-10-16T10:06:30.114Z,50.89
2023-10-16T10:07:31.649Z,50.65
2023-10-16T10:08:34.866Z,50.52
2023-10-16T10:09:37.235Z,50.42
2023-10-16T10:10:38.717Z,50.40
2023-10-16T10:11:40.237Z,50.15
2023-10-16T10:12:41.815Z,50.17
2023-10-16T10:13:43.266Z,49.99
2023-10-16T10:14:44.732Z,50.04
2023-10-16T10:15:46.386Z,49.96
2023-10-16T10:16:47.987Z,50.03
2023-10-16T10:17:49.578Z,50.01
2023-10-16T10:18:51.079Z,50.17
2023-10-16T10:19:52.556Z,50.16
2023-10-16T10:20:54.053Z,50.04
2023-10-16T10:21:55.653Z,50.13
2023-10-16T10:22:57.151Z,50.00
2023-10-16T10:23:58.662Z,49.95
2023-10-16T10:25:01.931Z,49.86
2023-10-16T10:26:04.654Z,49.63
2023-10-16T10:27:06.149Z,49.48
2023-10-16T10:28:07.675Z,49.42
2023-10-16T10:29:09.222Z,49.26
2023-10-16T10:30:10.724Z,49.08
2023-10-16T10:31:12.306Z,49.20
2023-10-16T10:32:13.954Z,49.22
2023-10-16T10:33:15.466Z,49.11
2023-10-16T10:34:16.999Z,49.23
2023-10-16T10:35:18.552Z,49.11
2023-10-16T10:36:20.063Z,48.90
2023-10-16T10:37:21.577Z,48.78
2023-10-16T10:38:23.109Z,48.79
2023-10-16T10:39:24.624Z,48.77
2023-10-16T10:40:26.139Z,48.75
2023-10-16T10:41:27.653Z,48.46
2023-10-16T10:42:29.134Z,48.51
2023-10-16T10:43:30.598Z,48.57
2023-10-16T10:44:32.074Z,48.49
2023-10-16T10:45:33.561Z,48.31
2023-10-16T10:46:35.223Z,48.41
2023-10-16T10:47:36.850Z,48.37
2023-10-16T10:48:38.441Z,48.10
2023-10-16T10:49:39.984Z,48.00
2023-10-16T10:50:41.539Z,47.97
2023-10-16T10:51:43.098Z,47.89
2023-10-16T10:52:44.801Z,47.47
2023-10-16T10:53:46.325Z,47.68
2023-10-16T10:54:47.825Z,47.76
2023-10-16T10:55:49.347Z,47.64
2023-10-16T10:56:50.845Z,47.75
2023-10-16T10:57:52.335Z,47.54
2023-10-16T10:58:53.879Z,47.46
2023-10-16T10:59:55.365Z,47.39
2023-10-16T11:00:56.921Z,47.39
2023-10-16T11:01:58.457Z,47.24
2023-10-16T11:03:00.047Z,47.17
2023-10-16T11:04:01.738Z,47.42
2023-10-16T11:05:03.282Z,47.33
2023-10-16T11:06:04.750Z,47.20
2023-10-16T11:07:06.348Z,47.12
2023-10-16T11:08:10.274Z,46.93
2023-10-16T11:09:11.761Z,46.94
2023-10-16T11:10:13.297Z,46.92
2023-10-16T11:11:14.797Z,46.92
2023-10-16T11:12:16.263Z,46.90
2023-10-16T11:13:17.718Z,46.62
2023-10-16T11:14:19.286Z,46.87
2023-10-16T11:15:20.872Z,46.70
2023-10-16T11:16:22.366Z,46.99
2023-10-16T11:17:24.019Z,46.78
2023-10-16T11:18:25.652Z,46.59
2023-10-16T11:19:27.277Z,46.70
2023-10-16T11:20:28.935Z,46.35
2023-10-16T11:21:30.519Z,46.32
2023-10-16T11:22:32.005Z,46.22
2023-10-16T11:23:33.926Z,46.53
2023-10-16T11:24:35.432Z,46.17
2023-10-16T11:25:36.932Z,46.05
2023-10-16T11:26:38.416Z,45.90
2023-10-16T11:27:39.951Z,45.77
2023-10-16T11:28:41.500Z,45.65
2023-10-16T11:29:43.037Z,45.78
2023-10-16T11:30:44.561Z,45.71
2023-10-16T11:31:46.113Z,45.65
2023-10-16T11:32:47.620Z,45.60
2023-10-16T11:33:49.159Z,45.40
2023-10-16T11:34:50.662Z,45.39
2023-10-16T11:35:52.137Z,45.26
2023-10-16T11:36:53.604Z,45.11
2023-10-16T11:37:55.114Z,45.36
2023-10-16T11:38:56.579Z,45.28
2023-10-16T11:39:58.040Z,45.38
2023-10-16T11:40:59.620Z,45.39
2023-10-16T11:42:01.092Z,45.36
2023-10-16T11:43:02.624Z,45.14
2023-10-16T11:44:04.141Z,45.43
2023-10-16T11:45:05.619Z,45.08
2023-10-16T11:46:07.219Z,45.08
2023-10-16T11:47:08.898Z,44.78
2023-10-16T11:48:12.175Z,44.81
2023-10-16T11:49:13.745Z,44.62
2023-10-16T11:50:15.254Z,44.93
2023-10-16T11:51:16.728Z,44.80
2023-10-16T11:52:18.181Z,44.88
2023-10-16T11:53:19.650Z,44.91
2023-10-16T11:54:21.127Z,44.93
2023-10-16T11:55:22.664Z,44.96
2023-10-16T11:56:24.140Z,45.05
2023-10-16T11:57:25.598Z,44.98
2023-10-16T11:58:27.070Z,45.03
2023-10-16T11:59:28.578Z,44.94
2023-10-16T12:00:30.044Z,44.94
2023-10-16T12:01:43.465Z,45.00
2023-10-16T12:02:52.103Z,44.95
2023-10-16T12:03:53.740Z,45.24
2023-10-16T12:04:55.422Z,45.02
2023-10-16T12:05:56.953Z,45.18
2023-10-16T12:06:58.453Z,44.93
2023-10-16T12:07:59.932Z,44.96
2023-10-16T12:09:01.579Z,44.92
2023-10-16T12:10:03.100Z,45.12
2023-10-16T12:11:04.636Z,45.34
2023-10-16T12:12:06.398Z,45.15
2023-10-16T12:13:07.949Z,45.13
2023-10-16T12:14:09.498Z,45.37
2023-10-16T12:15:10.982Z,45.74
2023-10-16T12:16:20.570Z,45.19
2023-10-16T12:17:30.217Z,45.24
2023-10-16T12:18:31.703Z,45.35
2023-10-16T12:19:33.239Z,45.50
2023-10-16T12:20:34.719Z,45.45
2023-10-16T12:21:36.279Z,45.45
2023-10-16T12:22:37.809Z,45.49
2023-10-16T12:23:39.416Z,45.41
2023-10-16T12:24:41.086Z,45.52
2023-10-16T12:25:42.621Z,45.19
2023-10-16T12:26:44.731Z,45.13
2023-10-16T12:27:46.202Z,45.12
2023-10-16T12:28:47.776Z,44.95
2023-10-16T12:29:49.260Z,45.03
2023-10-16T12:30:50.739Z,45.31
2023-10-16T12:31:52.355Z,44.87
2023-10-16T12:32:53.876Z,44.96
2023-10-16T12:33:55.380Z,45.18
2023-10-16T12:34:56.873Z,45.09
2023-10-16T12:35:58.412Z,45.24
2023-10-16T12:36:59.880Z,45.08
2023-10-16T12:38:01.385Z,44.85
2023-10-16T12:39:02.862Z,44.94
2023-10-16T12:40:04.402Z,44.65
2023-10-16T12:41:05.872Z,44.33
2023-10-16T12:42:07.367Z,44.20
2023-10-16T12:43:08.884Z,43.94
2023-10-16T12:44:10.593Z,43.96
2023-10-16T12:45:12.288Z,43.93
2023-10-16T12:46:13.886Z,43.89
2023-10-16T12:47:28.159Z,43.86
2023-10-16T12:48:37.002Z,44.11
2023-10-16T12:49:38.570Z,43.99
2023-10-16T12:50:40.444Z,43.27
2023-10-16T12:51:42.688Z,43.11
2023-10-16T12:52:44.153Z,43.05
2023-10-16T12:53:45.598Z,43.15
2023-10-16T12:54:47.090Z,43.07
2023-10-16T12:55:48.599Z,43.10
2023-10-16T12:56:50.071Z,42.47
2023-10-16T12:57:51.623Z,42.60
2023-10-16T12:58:53.089Z,42.76
2023-10-16T12:59:54.542Z,42.65
2023-10-16T13:00:56.061Z,42.62
2023-10-16T13:01:57.545Z,42.40
2023-10-16T13:02:59.036Z,42.65
2023-10-16T13:04:00.648Z,42.85
2023-10-16T13:05:02.186Z,43.10
2023-10-16T13:06:03.681Z,42.80
2023-10-16T13:07:05.184Z,42.91
2023-10-16T13:08:06.886Z,42.82
2023-10-16T13:09:08.417Z,42.30
2023-10-16T13:10:10.014Z,42.61
2023-10-16T13:11:11.674Z,42.66
2023-10-16T13:12:13.195Z,42.29
2023-10-16T13:13:14.770Z,42.49
2023-10-16T13:14:16.278Z,42.07
2023-10-16T13:15:17.827Z,42.05